sensor_id;sensor_type;location;lat;lon;timestamp;temperature;humidity
64951;DHT22;51482;47.014;7.652;2022-09-23T00:00:25;10.00;99.90
64951;DHT22;51482;47.014;7.652;2022-09-23T00:02:51;9.80;99.90
64951;DHT22;51482;47.014;7.652;2022-09-23T00:05:17;9.40;99.90
64951;DHT22;51482;47.014;7.652;2022-09-23T00:07:43;9.60;99.90
64951;DHT22;51482;47.014;7.652;2022-09-23T00:10:09;9.40;99.90
64951;DHT22;51482;47.014;7.652;2022-09-23T00:12:35;9.40;99.90
64951;DHT22;51482;47.014;7.652;2022-09-23T00:15:00;9.40;99.90
64951;DHT22;51482;47.014;7.652;2022-09-23T00:17:26;9.90;99.90
64951;DHT22;51482;47.014;7.652;2022-09-23T00:19:52;9.60;99.90
64951;DHT22;51482;47.014;7.652;2022-09-23T00:22:19;8.90;99.90
64951;DHT22;51482;47.014;7.652;2022-09-23T00:24:45;9.90;99.90
64951;DHT22;51482;47.014;7.652;2022-09-23T00:27:11;9.70;99.90
64951;DHT22;51482;47.014;7.652;2022-09-23T00:29:36;9.20;99.90
64951;DHT22;51482;47.014;7.652;2022-09-23T00:32:02;9.70;99.90
64951;DHT22;51482;47.014;7.652;2022-09-23T00:34:28;9.20;99.90
64951;DHT22;51482;47.014;7.652;2022-09-23T00:36:54;9.60;99.90
64951;DHT22;51482;47.014;7.652;2022-09-23T00:39:22;9.50;99.90
64951;DHT22;51482;47.014;7.652;2022-09-23T00:41:48;9.00;99.90
64951;DHT22;51482;47.014;7.652;2022-09-23T00:47:29;8.80;99.90
64951;DHT22;51482;47.014;7.652;2022-09-23T00:52:41;8.90;99.90
64951;DHT22;51482;47.014;7.652;2022-09-23T00:55:10;9.40;99.90
64951;DHT22;51482;47.014;7.652;2022-09-23T00:57:38;8.90;99.90
64951;DHT22;51482;47.014;7.652;2022-09-23T01:00:06;8.90;99.90
64951;DHT22;51482;47.014;7.652;2022-09-23T01:02:32;9.10;99.90
64951;DHT22;51482;47.014;7.652;2022-09-23T01:04:58;9.30;99.90
64951;DHT22;51482;47.014;7.652;2022-09-23T01:07:25;9.50;99.90
64951;DHT22;51482;47.014;7.652;2022-09-23T01:09:51;8.80;99.90
64951;DHT22;51482;47.014;7.652;2022-09-23T01:12:43;8.90;99.90
64951;DHT22;51482;47.014;7.652;2022-09-23T01:20:51;8.60;99.90
64951;DHT22;51482;47.014;7.652;2022-09-23T01:34:42;8.40;99.90
64951;DHT22;51482;47.014;7.652;2022-09-23T01:37:19;7.70;99.90
64951;DHT22;51482;47.014;7.652;2022-09-23T01:39:59;8.00;99.90
64951;DHT22;51482;47.014;7.652;2022-09-23T01:42:38;8.90;99.90
64951;DHT22;51482;47.014;7.652;2022-09-23T01:45:19;8.70;99.90
64951;DHT22;51482;47.014;7.652;2022-09-23T01:47:50;8.40;99.90
64951;DHT22;51482;47.014;7.652;2022-09-23T01:50:22;8.00;99.90
64951;DHT22;51482;47.014;7.652;2022-09-23T01:56:06;7.70;99.90
64951;DHT22;51482;47.014;7.652;2022-09-23T01:58:47;8.30;99.90
64951;DHT22;51482;47.014;7.652;2022-09-23T02:01:25;8.30;99.90
64951;DHT22;51482;47.014;7.652;2022-09-23T02:04:02;7.90;99.90
64951;DHT22;51482;47.014;7.652;2022-09-23T02:09:40;8.30;99.90
64951;DHT22;51482;47.014;7.652;2022-09-23T02:12:10;9.00;99.90
64951;DHT22;51482;47.014;7.652;2022-09-23T02:14:45;8.90;99.90
64951;DHT22;51482;47.014;7.652;2022-09-23T02:17:23;8.40;99.90
64951;DHT22;51482;47.014;7.652;2022-09-23T02:20:02;8.30;99.90
64951;DHT22;51482;47.014;7.652;2022-09-23T02:25:14;8.20;99.90
64951;DHT22;51482;47.014;7.652;2022-09-23T02:27:50;8.50;99.90
64951;DHT22;51482;47.014;7.652;2022-09-23T02:30:29;8.60;99.90
64951;DHT22;51482;47.014;7.652;2022-09-23T02:33:06;8.70;99.90
64951;DHT22;51482;47.014;7.652;2022-09-23T02:35:37;8.30;99.90
64951;DHT22;51482;47.014;7.652;2022-09-23T02:43:24;8.00;99.90
64951;DHT22;51482;47.014;7.652;2022-09-23T02:45:55;7.70;99.90
64951;DHT22;51482;47.014;7.652;2022-09-23T02:48:25;8.60;99.90
64951;DHT22;51482;47.014;7.652;2022-09-23T02:50:52;8.00;99.90
64951;DHT22;51482;47.014;7.652;2022-09-23T02:53:17;7.90;99.90
64951;DHT22;51482;47.014;7.652;2022-09-23T02:55:43;8.40;99.90
64951;DHT22;51482;47.014;7.652;2022-09-23T02:58:11;8.60;99.90
64951;DHT22;51482;47.014;7.652;2022-09-23T03:03:24;8.40;99.90
64951;DHT22;51482;47.014;7.652;2022-09-23T03:05:56;8.20;99.90
64951;DHT22;51482;47.014;7.652;2022-09-23T03:08:46;7.40;99.90
64951;DHT22;51482;47.014;7.652;2022-09-23T03:11:15;7.90;99.90
64951;DHT22;51482;47.014;7.652;2022-09-23T03:17:13;8.10;99.90
64951;DHT22;51482;47.014;7.652;2022-09-23T03:19:52;7.90;99.90
64951;DHT22;51482;47.014;7.652;2022-09-23T03:22:21;8.10;99.90
64951;DHT22;51482;47.014;7.652;2022-09-23T03:24:50;7.90;99.90
64951;DHT22;51482;47.014;7.652;2022-09-23T03:27:20;7.30;99.90
64951;DHT22;51482;47.014;7.652;2022-09-23T03:29:49;8.00;99.90
64951;DHT22;51482;47.014;7.652;2022-09-23T03:32:17;7.80;99.90
64951;DHT22;51482;47.014;7.652;2022-09-23T03:34:46;7.80;99.90
64951;DHT22;51482;47.014;7.652;2022-09-23T03:42:41;7.80;99.90
64951;DHT22;51482;47.014;7.652;2022-09-23T03:45:10;7.40;99.90
64951;DHT22;51482;47.014;7.652;2022-09-23T03:47:38;8.20;99.90
64951;DHT22;51482;47.014;7.652;2022-09-23T03:50:05;8.20;99.90
64951;DHT22;51482;47.014;7.652;2022-09-23T03:52:31;7.60;99.90
64951;DHT22;51482;47.014;7.652;2022-09-23T03:54:56;7.10;99.90
64951;DHT22;51482;47.014;7.652;2022-09-23T03:57:23;7.10;99.90
64951;DHT22;51482;47.014;7.652;2022-09-23T03:59:49;7.20;99.90
64951;DHT22;51482;47.014;7.652;2022-09-23T04:02:16;8.20;99.90
64951;DHT22;51482;47.014;7.652;2022-09-23T04:04:42;7.60;99.90
64951;DHT22;51482;47.014;7.652;2022-09-23T04:07:08;7.10;99.90
64951;DHT22;51482;47.014;7.652;2022-09-23T04:09:35;7.50;99.90
64951;DHT22;51482;47.014;7.652;2022-09-23T04:12:00;7.60;99.90
64951;DHT22;51482;47.014;7.652;2022-09-23T04:14:27;6.90;99.90
64951;DHT22;51482;47.014;7.652;2022-09-23T04:16:53;7.60;99.90
64951;DHT22;51482;47.014;7.652;2022-09-23T04:19:19;8.00;99.90
64951;DHT22;51482;47.014;7.652;2022-09-23T04:21:44;7.60;99.90
64951;DHT22;51482;47.014;7.652;2022-09-23T04:24:11;7.40;99.90
64951;DHT22;51482;47.014;7.652;2022-09-23T04:26:38;7.00;99.90
64951;DHT22;51482;47.014;7.652;2022-09-23T04:29:04;7.20;99.90
64951;DHT22;51482;47.014;7.652;2022-09-23T04:31:31;7.10;99.90
64951;DHT22;51482;47.014;7.652;2022-09-23T04:33:57;7.20;99.90
64951;DHT22;51482;47.014;7.652;2022-09-23T04:36:23;7.80;99.90
64951;DHT22;51482;47.014;7.652;2022-09-23T04:38:49;6.80;99.90
64951;DHT22;51482;47.014;7.652;2022-09-23T04:41:16;7.20;99.90
64951;DHT22;51482;47.014;7.652;2022-09-23T04:43:42;7.10;99.90
64951;DHT22;51482;47.014;7.652;2022-09-23T04:46:09;7.00;99.90
64951;DHT22;51482;47.014;7.652;2022-09-23T04:48:37;7.70;99.90
64951;DHT22;51482;47.014;7.652;2022-09-23T04:51:08;7.90;99.90
64951;DHT22;51482;47.014;7.652;2022-09-23T04:53:35;7.70;99.90
64951;DHT22;51482;47.014;7.652;2022-09-23T04:56:06;8.00;99.90
64951;DHT22;51482;47.014;7.652;2022-09-23T04:58:34;7.60;99.90
64951;DHT22;51482;47.014;7.652;2022-09-23T05:01:16;7.00;99.90
64951;DHT22;51482;47.014;7.652;2022-09-23T05:03:43;7.70;99.90
64951;DHT22;51482;47.014;7.652;2022-09-23T05:06:09;7.50;99.90
64951;DHT22;51482;47.014;7.652;2022-09-23T05:08:38;7.70;99.90
64951;DHT22;51482;47.014;7.652;2022-09-23T05:11:04;7.50;99.90
64951;DHT22;51482;47.014;7.652;2022-09-23T05:13:31;8.00;99.90
64951;DHT22;51482;47.014;7.652;2022-09-23T05:16:16;7.80;99.90
64951;DHT22;51482;47.014;7.652;2022-09-23T05:18:42;7.40;99.90
64951;DHT22;51482;47.014;7.652;2022-09-23T05:21:10;8.00;99.90
64951;DHT22;51482;47.014;7.652;2022-09-23T05:23:36;8.00;99.90
64951;DHT22;51482;47.014;7.652;2022-09-23T05:26:04;7.70;99.90
64951;DHT22;51482;47.014;7.652;2022-09-23T05:28:31;7.70;99.90
64951;DHT22;51482;47.014;7.652;2022-09-23T05:31:17;7.20;99.90
64951;DHT22;51482;47.014;7.652;2022-09-23T05:33:46;7.00;99.90
64951;DHT22;51482;47.014;7.652;2022-09-23T05:36:14;7.00;99.90
64951;DHT22;51482;47.014;7.652;2022-09-23T05:38:42;7.00;99.90
64951;DHT22;51482;47.014;7.652;2022-09-23T05:41:10;7.20;99.90
64951;DHT22;51482;47.014;7.652;2022-09-23T05:43:36;8.20;99.90
64951;DHT22;51482;47.014;7.652;2022-09-23T05:46:06;7.80;99.90
64951;DHT22;51482;47.014;7.652;2022-09-23T05:48:33;7.60;99.90
64951;DHT22;51482;47.014;7.652;2022-09-23T05:50:59;7.60;99.90
64951;DHT22;51482;47.014;7.652;2022-09-23T05:53:26;7.30;99.90
64951;DHT22;51482;47.014;7.652;2022-09-23T05:55:52;7.80;99.90
64951;DHT22;51482;47.014;7.652;2022-09-23T05:58:19;7.70;99.90
64951;DHT22;51482;47.014;7.652;2022-09-23T06:00:45;8.40;99.90
64951;DHT22;51482;47.014;7.652;2022-09-23T06:03:16;7.50;99.90
64951;DHT22;51482;47.014;7.652;2022-09-23T06:05:42;8.40;99.90
64951;DHT22;51482;47.014;7.652;2022-09-23T06:08:08;7.90;99.90
64951;DHT22;51482;47.014;7.652;2022-09-23T06:10:42;8.10;99.90
64951;DHT22;51482;47.014;7.652;2022-09-23T06:13:08;8.80;99.90
64951;DHT22;51482;47.014;7.652;2022-09-23T06:15:35;7.70;99.90
64951;DHT22;51482;47.014;7.652;2022-09-23T06:18:01;8.50;99.90
64951;DHT22;51482;47.014;7.652;2022-09-23T06:20:27;8.90;99.90
64951;DHT22;51482;47.014;7.652;2022-09-23T06:23:08;8.90;99.90
64951;DHT22;51482;47.014;7.652;2022-09-23T06:25:36;8.30;99.90
64951;DHT22;51482;47.014;7.652;2022-09-23T06:28:05;7.80;99.90
64951;DHT22;51482;47.014;7.652;2022-09-23T06:30:37;8.50;99.90
64951;DHT22;51482;47.014;7.652;2022-09-23T06:33:03;8.70;99.90
64951;DHT22;51482;47.014;7.652;2022-09-23T06:35:29;7.80;99.90
64951;DHT22;51482;47.014;7.652;2022-09-23T06:37:57;8.70;99.90
64951;DHT22;51482;47.014;7.652;2022-09-23T06:40:23;8.70;99.90
64951;DHT22;51482;47.014;7.652;2022-09-23T06:42:56;9.40;99.90
64951;DHT22;51482;47.014;7.652;2022-09-23T06:45:22;9.90;99.90
64951;DHT22;51482;47.014;7.652;2022-09-23T06:47:52;8.50;99.90
64951;DHT22;51482;47.014;7.652;2022-09-23T06:50:20;9.60;99.90
64951;DHT22;51482;47.014;7.652;2022-09-23T06:52:55;9.60;99.90
64951;DHT22;51482;47.014;7.652;2022-09-23T06:55:22;9.30;99.90
64951;DHT22;51482;47.014;7.652;2022-09-23T06:57:49;9.90;99.90
64951;DHT22;51482;47.014;7.652;2022-09-23T07:00:14;10.00;99.90
64951;DHT22;51482;47.014;7.652;2022-09-23T07:02:40;9.20;99.90
64951;DHT22;51482;47.014;7.652;2022-09-23T07:05:09;10.00;99.90
64951;DHT22;51482;47.014;7.652;2022-09-23T07:07:35;9.70;99.90
64951;DHT22;51482;47.014;7.652;2022-09-23T07:10:03;9.70;99.90
64951;DHT22;51482;47.014;7.652;2022-09-23T07:12:30;9.90;99.90
64951;DHT22;51482;47.014;7.652;2022-09-23T07:14:56;11.00;99.90
64951;DHT22;51482;47.014;7.652;2022-09-23T07:17:22;11.40;99.90
64951;DHT22;51482;47.014;7.652;2022-09-23T07:19:51;11.90;99.90
64951;DHT22;51482;47.014;7.652;2022-09-23T07:22:19;11.90;99.90
64951;DHT22;51482;47.014;7.652;2022-09-23T07:24:45;12.20;99.90
64951;DHT22;51482;47.014;7.652;2022-09-23T07:27:14;12.90;99.90
64951;DHT22;51482;47.014;7.652;2022-09-23T07:29:48;13.10;99.90
64951;DHT22;51482;47.014;7.652;2022-09-23T07:32:14;12.60;99.90
64951;DHT22;51482;47.014;7.652;2022-09-23T07:34:39;13.30;99.90
64951;DHT22;51482;47.014;7.652;2022-09-23T07:37:05;13.00;99.90
64951;DHT22;51482;47.014;7.652;2022-09-23T07:39:30;13.80;99.90
64951;DHT22;51482;47.014;7.652;2022-09-23T07:41:56;14.40;99.90
64951;DHT22;51482;47.014;7.652;2022-09-23T07:44:22;14.30;99.90
64951;DHT22;51482;47.014;7.652;2022-09-23T07:46:49;14.10;99.90
64951;DHT22;51482;47.014;7.652;2022-09-23T07:49:15;14.90;99.90
64951;DHT22;51482;47.014;7.652;2022-09-23T07:51:41;15.00;99.90
64951;DHT22;51482;47.014;7.652;2022-09-23T07:54:13;15.00;99.90
64951;DHT22;51482;47.014;7.652;2022-09-23T07:56:40;15.30;99.90
64951;DHT22;51482;47.014;7.652;2022-09-23T07:59:08;15.40;99.90
64951;DHT22;51482;47.014;7.652;2022-09-23T08:01:49;14.90;99.90
64951;DHT22;51482;47.014;7.652;2022-09-23T08:04:23;15.10;99.90
64951;DHT22;51482;47.014;7.652;2022-09-23T08:06:51;15.50;99.90
64951;DHT22;51482;47.014;7.652;2022-09-23T08:09:20;15.50;99.90
64951;DHT22;51482;47.014;7.652;2022-09-23T08:11:47;16.00;99.90
64951;DHT22;51482;47.014;7.652;2022-09-23T08:14:14;16.10;99.90
64951;DHT22;51482;47.014;7.652;2022-09-23T08:16:44;16.00;99.90
64951;DHT22;51482;47.014;7.652;2022-09-23T08:19:11;16.80;99.90
64951;DHT22;51482;47.014;7.652;2022-09-23T08:21:38;17.00;99.90
64951;DHT22;51482;47.014;7.652;2022-09-23T08:24:17;17.20;99.90
64951;DHT22;51482;47.014;7.652;2022-09-23T08:26:44;16.90;99.90
64951;DHT22;51482;47.014;7.652;2022-09-23T08:29:15;17.20;99.90
64951;DHT22;51482;47.014;7.652;2022-09-23T08:31:41;17.20;99.90
64951;DHT22;51482;47.014;7.652;2022-09-23T08:34:07;18.10;99.90
64951;DHT22;51482;47.014;7.652;2022-09-23T08:36:34;17.50;99.90
64951;DHT22;51482;47.014;7.652;2022-09-23T08:38:59;17.80;99.90
64951;DHT22;51482;47.014;7.652;2022-09-23T08:44:22;18.40;99.90
64951;DHT22;51482;47.014;7.652;2022-09-23T08:46:54;18.60;99.90
64951;DHT22;51482;47.014;7.652;2022-09-23T08:49:32;19.00;99.90
64951;DHT22;51482;47.014;7.652;2022-09-23T08:52:12;18.90;99.90
64951;DHT22;51482;47.014;7.652;2022-09-23T08:54:38;19.50;99.90
64951;DHT22;51482;47.014;7.652;2022-09-23T08:57:06;20.00;99.90
64951;DHT22;51482;47.014;7.652;2022-09-23T08:59:41;19.40;99.90
64951;DHT22;51482;47.014;7.652;2022-09-23T09:02:18;19.50;99.90
64951;DHT22;51482;47.014;7.652;2022-09-23T09:04:51;19.70;99.90
64951;DHT22;51482;47.014;7.652;2022-09-23T09:07:20;19.50;99.90
64951;DHT22;51482;47.014;7.652;2022-09-23T09:15:11;19.60;99.90
64951;DHT22;51482;47.014;7.652;2022-09-23T09:20:23;19.80;99.90
64951;DHT22;51482;47.014;7.652;2022-09-23T09:22:58;19.90;99.90
64951;DHT22;51482;47.014;7.652;2022-09-23T09:25:51;20.50;99.90
64951;DHT22;51482;47.014;7.652;2022-09-23T09:34:03;20.60;99.90
64951;DHT22;51482;47.014;7.652;2022-09-23T09:39:14;20.70;99.90
64951;DHT22;51482;47.014;7.652;2022-09-23T09:41:48;20.90;99.90
64951;DHT22;51482;47.014;7.652;2022-09-23T09:44:42;20.80;99.90
64951;DHT22;51482;47.014;7.652;2022-09-23T09:50:08;21.00;99.90
64951;DHT22;51482;47.014;7.652;2022-09-23T09:52:34;21.20;99.80
64951;DHT22;51482;47.014;7.652;2022-09-23T09:57:48;21.70;99.90
64951;DHT22;51482;47.014;7.652;2022-09-23T10:00:18;21.80;98.90
64951;DHT22;51482;47.014;7.652;2022-09-23T10:03:03;22.10;97.80
64951;DHT22;51482;47.014;7.652;2022-09-23T10:08:32;22.60;93.80
64951;DHT22;51482;47.014;7.652;2022-09-23T10:11:05;22.80;93.00
64951;DHT22;51482;47.014;7.652;2022-09-23T10:13:35;23.10;92.80
64951;DHT22;51482;47.014;7.652;2022-09-23T10:16:03;23.30;92.10
64951;DHT22;51482;47.014;7.652;2022-09-23T10:18:32;23.10;91.50
64951;DHT22;51482;47.014;7.652;2022-09-23T10:23:31;23.60;90.50
64951;DHT22;51482;47.014;7.652;2022-09-23T10:26:02;23.80;90.40
64951;DHT22;51482;47.014;7.652;2022-09-23T10:28:54;23.90;90.80
64951;DHT22;51482;47.014;7.652;2022-09-23T10:31:34;24.00;88.80
64951;DHT22;51482;47.014;7.652;2022-09-23T10:34:02;24.10;87.90
64951;DHT22;51482;47.014;7.652;2022-09-23T10:36:31;24.40;88.20
64951;DHT22;51482;47.014;7.652;2022-09-23T10:38:59;24.30;84.20
64951;DHT22;51482;47.014;7.652;2022-09-23T10:42:16;25.00;86.90
64951;DHT22;51482;47.014;7.652;2022-09-23T10:45:24;24.90;84.10
64951;DHT22;51482;47.014;7.652;2022-09-23T10:50:53;25.20;79.80
64951;DHT22;51482;47.014;7.652;2022-09-23T10:53:44;25.50;78.90
64951;DHT22;51482;47.014;7.652;2022-09-23T10:56:29;25.80;76.60
64951;DHT22;51482;47.014;7.652;2022-09-23T11:02:16;25.70;75.30
64951;DHT22;51482;47.014;7.652;2022-09-23T11:05:23;25.80;75.90
64951;DHT22;51482;47.014;7.652;2022-09-23T11:11:05;26.20;74.60
64951;DHT22;51482;47.014;7.652;2022-09-23T11:16:05;26.60;74.40
64951;DHT22;51482;47.014;7.652;2022-09-23T11:19:18;26.40;72.90
64951;DHT22;51482;47.014;7.652;2022-09-23T11:35:02;26.50;70.20
64951;DHT22;51482;47.014;7.652;2022-09-23T11:37:39;26.50;69.20
64951;DHT22;51482;47.014;7.652;2022-09-23T11:42:53;27.00;69.30
64951;DHT22;51482;47.014;7.652;2022-09-23T11:45:26;27.20;66.70
64951;DHT22;51482;47.014;7.652;2022-09-23T11:48:01;27.60;66.60
64951;DHT22;51482;47.014;7.652;2022-09-23T11:50:40;27.20;63.50
64951;DHT22;51482;47.014;7.652;2022-09-23T11:53:22;27.30;65.00
64951;DHT22;51482;47.014;7.652;2022-09-23T11:56:01;27.30;63.90
64951;DHT22;51482;47.014;7.652;2022-09-23T11:58:36;27.40;65.30
64951;DHT22;51482;47.014;7.652;2022-09-23T12:01:09;27.50;63.30
64951;DHT22;51482;47.014;7.652;2022-09-23T12:04:01;27.80;62.50
64951;DHT22;51482;47.014;7.652;2022-09-23T12:06:43;27.90;62.30
64951;DHT22;51482;47.014;7.652;2022-09-23T12:09:18;27.90;61.70
64951;DHT22;51482;47.014;7.652;2022-09-23T12:11:58;28.00;63.20
64951;DHT22;51482;47.014;7.652;2022-09-23T12:14:51;27.70;60.00
64951;DHT22;51482;47.014;7.652;2022-09-23T12:22:55;27.80;62.50
64951;DHT22;51482;47.014;7.652;2022-09-23T12:25:50;27.90;60.20
64951;DHT22;51482;47.014;7.652;2022-09-23T12:28:21;28.00;62.60
64951;DHT22;51482;47.014;7.652;2022-09-23T12:30:50;28.10;60.60
64951;DHT22;51482;47.014;7.652;2022-09-23T12:33:26;28.20;60.70
64951;DHT22;51482;47.014;7.652;2022-09-23T12:35:55;28.20;60.10
64951;DHT22;51482;47.014;7.652;2022-09-23T12:38:37;28.30;60.00
64951;DHT22;51482;47.014;7.652;2022-09-23T12:41:29;28.40;61.40
64951;DHT22;51482;47.014;7.652;2022-09-23T12:46:44;28.40;59.70
64951;DHT22;51482;47.014;7.652;2022-09-23T12:49:23;28.40;60.20
64951;DHT22;51482;47.014;7.652;2022-09-23T12:54:44;28.30;59.90
64951;DHT22;51482;47.014;7.652;2022-09-23T13:00:25;28.10;58.90
64951;DHT22;51482;47.014;7.652;2022-09-23T13:02:58;28.30;62.00
64951;DHT22;51482;47.014;7.652;2022-09-23T13:05:51;28.90;62.10
64951;DHT22;51482;47.014;7.652;2022-09-23T13:08:38;28.40;58.80
64951;DHT22;51482;47.014;7.652;2022-09-23T13:11:12;28.70;59.70
64951;DHT22;51482;47.014;7.652;2022-09-23T13:13:41;28.70;59.80
64951;DHT22;51482;47.014;7.652;2022-09-23T13:19:05;28.80;59.50
64951;DHT22;51482;47.014;7.652;2022-09-23T13:26:49;28.00;59.00
64951;DHT22;51482;47.014;7.652;2022-09-23T13:29:24;27.60;59.70
64951;DHT22;51482;47.014;7.652;2022-09-23T13:31:52;27.50;60.00
64951;DHT22;51482;47.014;7.652;2022-09-23T13:34:22;27.50;61.30
64951;DHT22;51482;47.014;7.652;2022-09-23T13:36:48;27.70;60.90
64951;DHT22;51482;47.014;7.652;2022-09-23T13:39:25;27.40;58.80
64951;DHT22;51482;47.014;7.652;2022-09-23T13:42:02;27.50;61.00
64951;DHT22;51482;47.014;7.652;2022-09-23T13:44:29;27.80;59.40
64951;DHT22;51482;47.014;7.652;2022-09-23T13:46:57;27.80;60.40
64951;DHT22;51482;47.014;7.652;2022-09-23T13:49:33;27.80;59.00
64951;DHT22;51482;47.014;7.652;2022-09-23T13:52:00;27.50;57.70
64951;DHT22;51482;47.014;7.652;2022-09-23T13:56:53;27.30;59.30
64951;DHT22;51482;47.014;7.652;2022-09-23T13:59:24;27.00;60.10
64951;DHT22;51482;47.014;7.652;2022-09-23T14:02:00;26.70;60.80
64951;DHT22;51482;47.014;7.652;2022-09-23T14:04:26;26.80;62.70
64951;DHT22;51482;47.014;7.652;2022-09-23T14:06:52;26.70;59.10
64951;DHT22;51482;47.014;7.652;2022-09-23T14:09:22;26.60;59.90
64951;DHT22;51482;47.014;7.652;2022-09-23T14:11:49;26.10;60.50
64951;DHT22;51482;47.014;7.652;2022-09-23T14:14:16;25.90;61.70
64951;DHT22;51482;47.014;7.652;2022-09-23T14:16:42;25.70;64.20
64951;DHT22;51482;47.014;7.652;2022-09-23T14:19:15;25.60;64.50
64951;DHT22;51482;47.014;7.652;2022-09-23T14:21:42;25.70;64.10
64951;DHT22;51482;47.014;7.652;2022-09-23T14:26:41;25.80;66.40
64951;DHT22;51482;47.014;7.652;2022-09-23T14:29:19;25.60;66.40
64951;DHT22;51482;47.014;7.652;2022-09-23T14:31:55;25.50;67.50
64951;DHT22;51482;47.014;7.652;2022-09-23T14:40:26;25.60;69.00
64951;DHT22;51482;47.014;7.652;2022-09-23T14:45:24;25.20;68.30
64951;DHT22;51482;47.014;7.652;2022-09-23T14:47:57;25.20;70.20
64951;DHT22;51482;47.014;7.652;2022-09-23T14:50:26;25.40;69.40
64951;DHT22;51482;47.014;7.652;2022-09-23T14:55:46;25.40;68.50
64951;DHT22;51482;47.014;7.652;2022-09-23T14:58:16;25.80;68.30
64951;DHT22;51482;47.014;7.652;2022-09-23T15:01:22;25.50;69.00
64951;DHT22;51482;47.014;7.652;2022-09-23T15:03:48;25.30;68.40
64951;DHT22;51482;47.014;7.652;2022-09-23T15:06:14;25.20;68.70
64951;DHT22;51482;47.014;7.652;2022-09-23T15:08:41;25.00;69.60
64951;DHT22;51482;47.014;7.652;2022-09-23T15:11:08;25.00;71.00
64951;DHT22;51482;47.014;7.652;2022-09-23T15:13:41;24.90;71.10
64951;DHT22;51482;47.014;7.652;2022-09-23T15:16:11;24.70;71.10
64951;DHT22;51482;47.014;7.652;2022-09-23T15:18:40;25.00;71.20
64951;DHT22;51482;47.014;7.652;2022-09-23T15:21:17;24.60;72.00
64951;DHT22;51482;47.014;7.652;2022-09-23T15:26:23;24.60;72.60
64951;DHT22;51482;47.014;7.652;2022-09-23T15:28:50;25.00;72.90
64951;DHT22;51482;47.014;7.652;2022-09-23T15:31:21;24.70;72.10
64951;DHT22;51482;47.014;7.652;2022-09-23T15:33:50;24.70;71.70
64951;DHT22;51482;47.014;7.652;2022-09-23T15:36:18;24.50;72.50
64951;DHT22;51482;47.014;7.652;2022-09-23T15:38:45;24.60;72.40
64951;DHT22;51482;47.014;7.652;2022-09-23T15:41:11;24.50;72.70
64951;DHT22;51482;47.014;7.652;2022-09-23T15:43:39;24.50;74.00
64951;DHT22;51482;47.014;7.652;2022-09-23T15:46:07;24.30;74.10
64951;DHT22;51482;47.014;7.652;2022-09-23T15:48:40;24.50;75.40
64951;DHT22;51482;47.014;7.652;2022-09-23T15:51:07;24.10;75.90
64951;DHT22;51482;47.014;7.652;2022-09-23T15:53:34;24.00;74.60
64951;DHT22;51482;47.014;7.652;2022-09-23T15:56:02;24.00;76.20
64951;DHT22;51482;47.014;7.652;2022-09-23T15:58:28;23.80;74.90
64951;DHT22;51482;47.014;7.652;2022-09-23T16:00:55;23.50;77.00
64951;DHT22;51482;47.014;7.652;2022-09-23T16:03:21;23.30;80.40
64951;DHT22;51482;47.014;7.652;2022-09-23T16:05:50;23.00;81.00
64951;DHT22;51482;47.014;7.652;2022-09-23T16:08:16;23.00;82.00
64951;DHT22;51482;47.014;7.652;2022-09-23T16:10:47;22.70;83.00
64951;DHT22;51482;47.014;7.652;2022-09-23T16:13:13;22.70;85.20
64951;DHT22;51482;47.014;7.652;2022-09-23T16:15:40;22.80;85.70
64951;DHT22;51482;47.014;7.652;2022-09-23T16:18:06;23.00;88.30
64951;DHT22;51482;47.014;7.652;2022-09-23T16:20:35;22.30;88.70
64951;DHT22;51482;47.014;7.652;2022-09-23T16:23:09;22.00;89.10
64951;DHT22;51482;47.014;7.652;2022-09-23T16:25:38;22.00;90.20
64951;DHT22;51482;47.014;7.652;2022-09-23T16:28:04;22.20;90.60
64951;DHT22;51482;47.014;7.652;2022-09-23T16:30:32;21.80;90.60
64951;DHT22;51482;47.014;7.652;2022-09-23T16:32:58;22.10;90.90
64951;DHT22;51482;47.014;7.652;2022-09-23T16:35:26;21.50;91.50
64951;DHT22;51482;47.014;7.652;2022-09-23T16:37:53;21.50;91.50
64951;DHT22;51482;47.014;7.652;2022-09-23T16:40:21;21.70;91.70
64951;DHT22;51482;47.014;7.652;2022-09-23T16:42:48;21.50;92.10
64951;DHT22;51482;47.014;7.652;2022-09-23T16:45:16;21.10;91.80
64951;DHT22;51482;47.014;7.652;2022-09-23T16:47:46;21.80;92.70
64951;DHT22;51482;47.014;7.652;2022-09-23T16:50:15;20.90;92.90
64951;DHT22;51482;47.014;7.652;2022-09-23T16:52:41;20.80;93.00
64951;DHT22;51482;47.014;7.652;2022-09-23T16:55:08;20.80;93.10
64951;DHT22;51482;47.014;7.652;2022-09-23T16:57:35;21.00;93.90
64951;DHT22;51482;47.014;7.652;2022-09-23T17:00:06;20.60;93.90
64951;DHT22;51482;47.014;7.652;2022-09-23T17:02:51;20.40;94.60
64951;DHT22;51482;47.014;7.652;2022-09-23T17:05:35;20.50;95.10
64951;DHT22;51482;47.014;7.652;2022-09-23T17:08:01;20.60;96.60
64951;DHT22;51482;47.014;7.652;2022-09-23T17:10:27;20.00;97.30
64951;DHT22;51482;47.014;7.652;2022-09-23T17:12:52;20.00;97.10
64951;DHT22;51482;47.014;7.652;2022-09-23T17:15:19;19.90;97.50
64951;DHT22;51482;47.014;7.652;2022-09-23T17:17:45;20.00;98.80
64951;DHT22;51482;47.014;7.652;2022-09-23T17:20:10;19.90;99.00
64951;DHT22;51482;47.014;7.652;2022-09-23T17:22:39;19.60;98.80
64951;DHT22;51482;47.014;7.652;2022-09-23T17:25:06;19.60;99.50
64951;DHT22;51482;47.014;7.652;2022-09-23T17:27:31;19.50;99.90
64951;DHT22;51482;47.014;7.652;2022-09-23T17:29:57;19.90;99.90
64951;DHT22;51482;47.014;7.652;2022-09-23T17:32:23;19.30;99.90
64951;DHT22;51482;47.014;7.652;2022-09-23T17:34:49;19.50;99.90
64951;DHT22;51482;47.014;7.652;2022-09-23T17:37:15;19.60;99.90
64951;DHT22;51482;47.014;7.652;2022-09-23T17:39:40;19.50;99.90
64951;DHT22;51482;47.014;7.652;2022-09-23T17:42:07;19.00;99.90
64951;DHT22;51482;47.014;7.652;2022-09-23T17:44:32;18.90;99.90
64951;DHT22;51482;47.014;7.652;2022-09-23T17:46:59;19.20;99.90
64951;DHT22;51482;47.014;7.652;2022-09-23T17:49:25;19.20;99.90
64951;DHT22;51482;47.014;7.652;2022-09-23T17:51:51;18.60;99.90
64951;DHT22;51482;47.014;7.652;2022-09-23T17:54:16;19.10;99.90
64951;DHT22;51482;47.014;7.652;2022-09-23T17:56:42;19.10;99.90
64951;DHT22;51482;47.014;7.652;2022-09-23T17:59:11;18.50;99.90
64951;DHT22;51482;47.014;7.652;2022-09-23T18:01:39;18.40;99.90
64951;DHT22;51482;47.014;7.652;2022-09-23T18:04:05;18.20;99.90
64951;DHT22;51482;47.014;7.652;2022-09-23T18:06:33;18.50;99.90
64951;DHT22;51482;47.014;7.652;2022-09-23T18:09:04;17.70;99.90
64951;DHT22;51482;47.014;7.652;2022-09-23T18:11:36;18.60;99.90
64951;DHT22;51482;47.014;7.652;2022-09-23T18:14:10;18.10;99.90
64951;DHT22;51482;47.014;7.652;2022-09-23T18:16:38;18.20;99.90
64951;DHT22;51482;47.014;7.652;2022-09-23T18:19:05;17.60;99.90
64951;DHT22;51482;47.014;7.652;2022-09-23T18:21:34;18.20;99.90
64951;DHT22;51482;47.014;7.652;2022-09-23T18:24:00;17.50;99.90
64951;DHT22;51482;47.014;7.652;2022-09-23T18:26:26;17.50;99.90